createdAt,value
2022-09-16T00:01:58.120Z,22.13
2022-09-16T00:04:27.838Z,16.58
2022-09-16T00:09:23.386Z,18.35
2022-09-16T00:11:51.570Z,16.83
2022-09-16T00:14:19.569Z,16.85
2022-09-16T00:16:47.700Z,16.38
2022-09-16T00:19:16.056Z,17.63
2022-09-16T00:21:44.107Z,23.48
2022-09-16T00:24:14.778Z,16.60
2022-09-16T00:26:45.378Z,21.65
2022-09-16T00:29:13.433Z,16.80
2022-09-16T00:31:41.619Z,18.27
2022-09-16T00:34:10.648Z,18.38
2022-09-16T00:36:38.623Z,17.73
2022-09-16T00:39:06.591Z,17.65
2022-09-16T00:41:36.366Z,21.25
2022-09-16T00:46:48.994Z,34.80
2022-09-16T00:49:23.301Z,34.72
2022-09-16T00:51:54.976Z,27.33
2022-09-16T00:54:24.965Z,23.33
2022-09-16T00:56:56.632Z,25.80
2022-09-16T00:59:38.877Z,21.55
2022-09-16T01:02:14.395Z,20.80
2022-09-16T01:04:54.024Z,22.48
2022-09-16T01:07:32.877Z,31.25
2022-09-16T01:10:01.953Z,24.30
2022-09-16T01:12:34.181Z,21.80
2022-09-16T01:15:04.063Z,22.20
2022-09-16T01:17:36.040Z,25.98
2022-09-16T01:20:45.723Z,18.88
2022-09-16T01:26:17.311Z,14.85
2022-09-16T01:29:17.393Z,14.02
2022-09-16T01:32:24.325Z,12.07
2022-09-16T01:34:55.396Z,13.82
2022-09-16T01:37:45.654Z,16.23
2022-09-16T01:40:38.419Z,17.58
2022-09-16T01:43:38.166Z,14.52
2022-09-16T01:48:53.966Z,14.43
2022-09-16T01:51:37.735Z,18.95
2022-09-16T01:54:32.768Z,15.93
2022-09-16T01:57:19.314Z,17.98
2022-09-16T01:59:51.666Z,16.95
2022-09-16T02:02:27.616Z,16.50
2022-09-16T02:05:00.135Z,15.43
2022-09-16T12:13:19.398Z,9.32
2022-09-16T12:16:04.812Z,10.32
2022-09-16T12:18:45.372Z,10.52
2022-09-16T12:21:16.571Z,10.50
2022-09-16T12:23:51.996Z,11.85
2022-09-16T12:26:29.976Z,14.10
2022-09-16T12:29:12.039Z,11.18
2022-09-16T12:31:55.942Z,9.98
2022-09-16T12:34:42.261Z,12.32
2022-09-16T12:37:26.639Z,12.02
2022-09-16T12:39:54.833Z,13.10
2022-09-16T12:42:46.620Z,20.00
2022-09-16T12:46:03.065Z,47.65
2022-09-16T12:49:09.175Z,44.88
2022-09-16T12:51:57.992Z,15.55
2022-09-16T12:55:06.784Z,35.88
2022-09-16T12:57:39.345Z,34.58
2022-09-16T13:00:37.801Z,51.45
2022-09-16T13:03:18.680Z,53.50
2022-09-16T13:05:51.848Z,38.40
2022-09-16T13:08:32.340Z,19.40
2022-09-16T13:14:28.568Z,20.38
2022-09-16T13:17:00.999Z,23.13
2022-09-16T13:19:54.679Z,17.45
2022-09-16T13:22:29.670Z,23.20
2022-09-16T13:25:25.305Z,38.95
2022-09-16T13:28:25.932Z,62.28
2022-09-16T13:30:54.139Z,59.97
2022-09-16T13:33:29.205Z,50.50
2022-09-16T13:36:19.991Z,59.05
2022-09-16T13:38:51.120Z,66.88
2022-09-16T13:41:37.750Z,77.22
2022-09-16T13:44:34.611Z,35.92
2022-09-16T13:47:16.520Z,30.73
2022-09-16T13:50:14.785Z,34.22
2022-09-16T13:52:44.960Z,37.15
2022-09-16T13:55:24.606Z,33.03
2022-09-16T13:58:22.688Z,32.85
2022-09-16T14:01:10.532Z,26.58
2022-09-16T14:03:46.742Z,22.65
2022-09-16T14:06:58.083Z,25.08
2022-09-16T14:09:46.722Z,25.80
2022-09-16T14:12:35.587Z,31.38
2022-09-16T14:15:04.178Z,31.88
2022-09-16T14:17:48.956Z,32.00
2022-09-16T14:20:23.583Z,35.58
2022-09-16T14:23:03.084Z,39.97
2022-09-16T14:25:37.058Z,37.65
2022-09-16T14:28:27.608Z,52.03
2022-09-16T14:30:59.166Z,72.15
2022-09-16T14:33:36.678Z,60.95
2022-09-16T14:36:13.215Z,65.97
2022-09-16T14:38:55.197Z,85.30
2022-09-16T14:41:58.277Z,73.72
2022-09-16T14:44:29.476Z,77.95
2022-09-16T14:47:09.480Z,80.82
2022-09-16T14:49:41.252Z,45.08
2022-09-16T14:52:23.015Z,51.88
2022-09-16T14:54:52.489Z,76.53
2022-09-16T14:57:26.405Z,86.05
2022-09-16T14:59:59.710Z,79.05
2022-09-16T15:02:30.457Z,79.18
2022-09-16T15:05:20.884Z,82.22
2022-09-16T15:08:09.935Z,71.05
2022-09-16T15:10:55.229Z,59.47
2022-09-16T15:13:36.627Z,52.33
2022-09-16T15:16:14.013Z,48.47
2022-09-16T15:18:59.945Z,47.10
2022-09-16T15:21:38.010Z,55.90
2022-09-16T15:24:17.236Z,51.60
2022-09-16T15:26:48.355Z,59.63
2022-09-16T15:29:19.488Z,55.03
2022-09-16T15:31:48.171Z,64.65
2022-09-16T15:34:22.317Z,42.53
2022-09-16T15:36:55.771Z,38.70
2022-09-16T15:39:32.153Z,49.38
2022-09-16T15:42:24.674Z,40.15
2022-09-16T15:44:59.705Z,31.80
2022-09-16T15:47:35.387Z,29.73
2022-09-16T15:50:15.508Z,32.40
2022-09-16T15:53:04.375Z,38.15
2022-09-16T15:55:43.894Z,42.78
2022-09-16T15:58:24.801Z,39.75
2022-09-16T16:01:13.575Z,36.47
2022-09-16T16:03:55.422Z,39.00
2022-09-16T16:06:56.054Z,38.03
2022-09-16T16:09:30.071Z,40.63
2022-09-16T16:12:11.148Z,38.72
2022-09-16T16:14:40.998Z,35.13
2022-09-16T16:19:46.102Z,70.70
2022-09-16T16:22:17.177Z,86.68
2022-09-16T16:24:46.293Z,74.55
2022-09-16T16:27:14.525Z,81.32
2022-09-16T16:29:42.496Z,80.90
2022-09-16T16:32:14.449Z,72.00
2022-09-16T16:34:45.690Z,75.82
2022-09-16T16:37:33.683Z,84.82
2022-09-16T16:40:07.274Z,81.22
2022-09-16T16:42:36.494Z,96.05
2022-09-16T16:45:05.120Z,71.65
2022-09-16T16:47:34.063Z,87.15
2022-09-16T16:50:02.276Z,116.50
2022-09-16T16:52:31.225Z,127.47
2022-09-16T16:54:59.464Z,111.75
2022-09-16T16:57:27.571Z,113.25
2022-09-16T16:59:55.620Z,98.93
2022-09-16T17:02:25.582Z,98.45
2022-09-16T17:04:53.655Z,105.40
2022-09-16T17:10:09.867Z,110.80
2022-09-16T17:12:39.240Z,99.88
2022-09-16T17:15:08.843Z,96.93
2022-09-16T17:17:37.083Z,121.35
2022-09-16T17:20:05.703Z,127.10
2022-09-16T17:22:33.738Z,114.07
2022-09-16T17:25:01.881Z,131.43
2022-09-16T17:27:31.561Z,127.03
2022-09-16T17:30:02.741Z,126.53
2022-09-16T17:32:33.111Z,111.10
2022-09-16T17:35:01.033Z,132.18
2022-09-16T17:40:01.031Z,117.82
2022-09-16T17:42:29.000Z,116.18
2022-09-16T17:44:57.057Z,122.82
2022-09-16T17:47:30.004Z,125.28
2022-09-16T17:50:00.065Z,113.55
2022-09-16T17:52:28.184Z,110.13
2022-09-16T17:54:57.146Z,116.60
2022-09-16T17:57:29.989Z,100.80
2022-09-16T18:00:21.074Z,99.90
2022-09-16T18:02:49.129Z,92.55
2022-09-16T18:05:17.588Z,108.35
2022-09-16T18:07:48.803Z,87.18
2022-09-16T18:10:17.096Z,97.22
2022-09-16T18:12:45.018Z,103.07
2022-09-16T18:15:13.901Z,91.10
2022-09-16T18:18:00.601Z,80.43
2022-09-16T18:20:48.439Z,79.82
2022-09-16T18:23:16.389Z,95.03
2022-09-16T18:25:44.317Z,88.85
2022-09-16T18:28:12.540Z,83.25
2022-09-16T18:30:40.740Z,86.57
2022-09-16T18:33:09.845Z,79.28
2022-09-16T18:35:39.794Z,72.70
2022-09-16T18:40:39.616Z,85.32
2022-09-16T18:43:08.051Z,89.32
2022-09-16T18:45:36.027Z,83.45
2022-09-16T18:48:04.402Z,84.57
2022-09-16T18:50:35.365Z,80.15
2022-09-16T18:53:03.650Z,79.35
2022-09-16T18:55:31.694Z,81.35
2022-09-16T18:58:00.655Z,80.63
2022-09-16T19:00:28.694Z,70.45
2022-09-16T19:02:56.649Z,61.78
2022-09-16T19:05:26.325Z,68.45
2022-09-16T19:07:54.403Z,58.78
2022-09-16T19:10:22.457Z,60.00
2022-09-16T19:12:50.594Z,66.45
2022-09-16T19:15:18.555Z,67.55
2022-09-16T19:17:46.629Z,75.57
2022-09-16T19:20:14.887Z,68.95
2022-09-16T19:22:46.429Z,73.28
2022-09-16T19:25:14.602Z,66.30
2022-09-16T19:27:42.778Z,56.60
2022-09-16T19:30:11.138Z,47.45
2022-09-16T19:32:40.023Z,70.43
2022-09-16T19:35:09.910Z,59.28
2022-09-16T19:40:05.722Z,58.97
2022-09-16T19:42:34.023Z,60.25
2022-09-16T19:45:02.005Z,76.55
2022-09-16T19:50:02.742Z,58.45
2022-09-16T19:52:31.447Z,62.25
2022-09-16T19:54:59.365Z,70.03
2022-09-16T19:57:29.892Z,70.45
2022-09-16T19:59:58.145Z,62.95
2022-09-16T20:02:26.154Z,65.13
2022-09-16T20:04:55.294Z,61.10
2022-09-16T20:07:23.389Z,60.65
2022-09-16T20:09:51.333Z,69.28
2022-09-16T20:12:21.106Z,64.05
2022-09-16T20:17:16.728Z,60.03
2022-09-16T20:19:45.256Z,54.58
2022-09-16T20:22:13.311Z,69.85
2022-09-16T20:24:42.566Z,61.45
2022-09-16T20:27:11.683Z,65.22
2022-09-16T20:29:39.633Z,61.45
2022-09-16T20:32:07.618Z,56.67
2022-09-16T20:34:35.765Z,60.80
2022-09-16T20:37:03.702Z,58.05
2022-09-16T20:39:31.676Z,58.20
2022-09-16T20:42:00.503Z,60.40
2022-09-16T20:44:28.459Z,57.90
2022-09-16T20:46:56.380Z,67.65
2022-09-16T20:49:26.417Z,59.42
2022-09-16T20:51:54.387Z,58.25
2022-09-16T20:54:22.356Z,58.65
2022-09-16T20:56:50.519Z,58.17
2022-09-16T20:59:20.706Z,58.75
2022-09-16T21:01:49.810Z,56.92
2022-09-16T21:04:22.026Z,59.25
2022-09-16T21:06:50.180Z,58.65
2022-09-16T21:09:19.635Z,57.80
2022-09-16T21:11:49.903Z,59.60
2022-09-16T21:14:18.675Z,56.53
2022-09-16T21:16:47.497Z,56.40
2022-09-16T21:19:15.969Z,58.33
2022-09-16T21:21:46.452Z,57.85
2022-09-16T21:24:14.965Z,67.22
2022-09-16T21:29:21.599Z,58.00
2022-09-16T21:31:50.180Z,69.15
2022-09-16T21:34:21.956Z,61.90
2022-09-16T21:36:51.239Z,55.70
2022-09-16T21:39:21.425Z,59.92
2022-09-16T21:41:50.753Z,55.90
2022-09-16T21:44:19.023Z,52.35
2022-09-16T21:46:47.689Z,54.67
2022-09-16T21:49:26.243Z,51.95
2022-09-16T21:51:56.243Z,50.03
2022-09-16T21:54:25.700Z,51.15
2022-09-16T21:56:54.775Z,53.10
2022-09-16T21:59:23.123Z,53.47
2022-09-16T22:01:52.412Z,47.88
2022-09-16T22:04:23.644Z,40.40
2022-09-16T22:06:55.372Z,44.75
2022-09-16T22:09:24.628Z,39.00
2022-09-16T22:11:53.426Z,32.35
2022-09-16T22:14:21.398Z,35.22
2022-09-16T22:16:51.013Z,36.30
2022-09-16T22:19:20.195Z,37.45
2022-09-16T22:21:50.389Z,36.67
2022-09-16T22:24:23.913Z,37.55
2022-09-16T22:26:52.615Z,30.85
2022-09-16T22:29:21.340Z,31.90
2022-09-16T22:31:49.821Z,32.20
2022-09-16T22:34:18.093Z,37.47
2022-09-16T22:36:46.090Z,39.15
2022-09-16T22:39:17.389Z,41.88
2022-09-16T22:41:45.332Z,40.05
2022-09-16T22:44:14.750Z,34.20
2022-09-16T22:46:50.012Z,34.97
2022-09-16T22:49:18.127Z,32.35
2022-09-16T22:51:46.144Z,35.05
2022-09-16T22:54:15.009Z,26.65
2022-09-16T22:56:44.479Z,31.67
2022-09-16T22:59:19.550Z,29.98
2022-09-16T23:01:48.400Z,31.20
2022-09-16T23:04:17.028Z,30.48
2022-09-16T23:06:45.157Z,30.80
2022-09-16T23:09:15.488Z,33.97
2022-09-16T23:11:44.370Z,31.08
2022-09-16T23:14:28.810Z,31.52
2022-09-16T23:16:56.738Z,33.58
2022-09-16T23:19:24.695Z,29.67
2022-09-16T23:21:52.848Z,27.52
2022-09-16T23:24:22.751Z,29.60
2022-09-16T23:26:50.821Z,27.90
2022-09-16T23:29:26.012Z,28.08
2022-09-16T23:31:54.104Z,27.25
2022-09-16T23:34:22.853Z,26.65
2022-09-16T23:36:53.430Z,22.77
2022-09-16T23:39:21.493Z,25.20
2022-09-16T23:41:51.036Z,25.10
2022-09-16T23:44:20.792Z,22.40
2022-09-16T23:49:20.961Z,25.83
2022-09-16T23:51:49.813Z,28.00
2022-09-16T23:54:18.143Z,31.83
2022-09-16T23:56:46.186Z,21.50
2022-09-16T23:59:15.175Z,26.77
